Time;durP1;ratioP1;P1;durP2;ratioP2;P2;SDS_P1;SDS_P2;PMS_P1;PMS_P2;Temp;Humidity;BMP_temperature;BMP_pressure;BME280_temperature;BME280_humidity;BME280_pressure;Samples;Min_cycle;Max_cycle;Signal;HPM_P1;HPM_P2
2024/02/23 00:02:06;;;;;;;;;;;;;;;29.58;19.13;96246.34;5114505;28;19977;-81
2024/02/23 00:04:32;;;;;;;;;;;;;;;28.97;19.28;96229.34;5114339;28;20014;-81
2024/02/23 00:06:58;;;;;;;;;;;;;;;28.71;19.96;96230.31;5094496;28;19973;-81
2024/02/23 00:09:24;;;;;;;;;;;;;;;28.74;20.15;96239.84;5093688;28;19927;-81
2024/02/23 00:11:50;;;;;;;;;;;;;;;28.73;19.96;96258.03;5100118;28;20018;-81
2024/02/23 00:14:20;;;;;;;;;;;;;;;28.93;19.76;96249.38;5096063;28;19970;-81
2024/02/23 00:16:46;;;;;;;;;;;;;;;29.04;19.80;96259.91;5112834;28;19916;-81
2024/02/23 00:19:13;;;;;;;;;;;;;;;29.05;19.51;96250.94;5114176;28;19923;-81
2024/02/23 00:21:39;;;;;;;;;;;;;;;29.42;19.22;96245.88;5114132;28;19916;-79
2024/02/23 00:24:06;;;;;;;;;;;;;;;29.36;19.34;96242.25;5113873;28;20395;-80
2024/02/23 00:26:32;;;;;;;;;;;;;;;29.29;19.60;96242.75;5113554;28;20369;-80
2024/02/23 00:28:58;;;;;;;;;;;;;;;29.25;19.69;96235.81;5095383;28;20281;-81
2024/02/23 00:31:24;;;;;;;;;;;;;;;29.46;19.31;96233.50;5093866;28;19923;-79
2024/02/23 00:33:50;;;;;;;;;;;;;;;29.51;19.48;96238.38;5094285;28;19920;-82
2024/02/23 00:36:16;;;;;;;;;;;;;;;29.35;19.82;96235.06;5093471;28;20262;-80
2024/02/23 00:38:42;;;;;;;;;;;;;;;29.38;19.54;96233.28;5113357;28;20002;-80
2024/02/23 00:41:08;;;;;;;;;;;;;;;29.56;19.48;96234.78;5093391;28;20377;-80
2024/02/23 00:43:37;;;;;;;;;;;;;;;29.53;19.75;96232.97;5093421;28;19954;-81
2024/02/23 00:46:04;;;;;;;;;;;;;;;29.26;19.90;96237.38;5093914;28;19928;-81
2024/02/23 00:48:30;;;;;;;;;;;;;;;29.51;19.71;96235.56;5075801;28;19931;-81
2024/02/23 00:50:56;;;;;;;;;;;;;;;29.71;19.69;96232.47;5093927;28;19923;-81
2024/02/23 00:53:22;;;;;;;;;;;;;;;29.70;19.71;96233.75;5093167;28;19916;-79
2024/02/23 00:55:48;;;;;;;;;;;;;;;29.83;19.53;96234.78;5092841;28;19916;-80
2024/02/23 00:58:15;;;;;;;;;;;;;;;29.48;20.17;96230.97;5093370;28;19912;-81
2024/02/23 01:00:41;;;;;;;;;;;;;;;29.43;20.66;96230.41;5093138;28;19916;-80
2024/02/23 01:03:07;;;;;;;;;;;;;;;29.51;20.31;96235.56;5093822;28;19917;-79
2024/02/23 01:05:33;;;;;;;;;;;;;;;29.20;21.00;96223.22;5096595;28;20331;-80
2024/02/23 01:07:59;;;;;;;;;;;;;;;29.15;20.97;96220.38;5110648;28;19927;-79
2024/02/23 01:10:25;;;;;;;;;;;;;;;29.07;21.31;96231.41;5132389;28;19912;-79
2024/02/23 01:12:51;;;;;;;;;;;;;;;29.18;20.74;96228.63;5134183;28;20357;-80
2024/02/23 01:15:17;;;;;;;;;;;;;;;29.31;20.75;96234.53;5133898;28;19935;-80
2024/02/23 01:17:43;;;;;;;;;;;;;;;28.75;21.19;96225.19;5133924;28;20380;-79
2024/02/23 01:20:09;;;;;;;;;;;;;;;28.80;21.18;96222.91;5114354;28;19920;-79
2024/02/23 01:22:35;;;;;;;;;;;;;;;29.09;20.90;96226.03;5079610;28;19912;-81
2024/02/23 01:25:02;;;;;;;;;;;;;;;29.19;20.45;96227.34;5097282;28;19923;-80
2024/02/23 01:27:28;;;;;;;;;;;;;;;28.61;21.12;96231.81;5114482;28;20297;-79
2024/02/23 01:29:54;;;;;;;;;;;;;;;28.90;20.95;96224.19;5117449;28;19916;-79
2024/02/23 01:32:20;;;;;;;;;;;;;;;28.60;20.99;96216.19;5114531;28;20373;-79
2024/02/23 01:34:46;;;;;;;;;;;;;;;28.48;21.45;96216.63;5096905;28;19926;-79
2024/02/23 01:37:12;;;;;;;;;;;;;;;28.17;21.38;96213.94;5096811;28;19927;-79
2024/02/23 01:39:38;;;;;;;;;;;;;;;27.69;21.89;96211.09;5096989;28;19970;-80
2024/02/23 01:42:04;;;;;;;;;;;;;;;28.30;21.61;96209.38;5097469;28;19916;-80
2024/02/23 01:44:30;;;;;;;;;;;;;;;28.59;21.40;96205.41;5097030;28;20377;-79
2024/02/23 01:46:56;;;;;;;;;;;;;;;28.67;21.04;96212.09;5096420;28;19920;-80
2024/02/23 01:49:29;;;;;;;;;;;;;;;29.10;20.85;96221.16;5096810;28;20333;-80
2024/02/23 01:51:56;;;;;;;;;;;;;;;29.47;20.40;96212.44;5096959;28;19916;-80
2024/02/23 01:54:23;;;;;;;;;;;;;;;29.50;20.35;96203.69;5096705;28;19916;-80
2024/02/23 01:56:50;;;;;;;;;;;;;;;29.62;20.05;96207.25;5097594;28;19943;-80
2024/02/23 01:59:17;;;;;;;;;;;;;;;29.13;20.24;96206.75;5096389;28;19912;-81
2024/02/23 02:01:43;;;;;;;;;;;;;;;29.50;20.39;96214.25;5101325;28;19915;-80
2024/02/23 02:04:10;;;;;;;;;;;;;;;29.74;19.67;96214.44;5116788;28;19924;-81
2024/02/23 02:06:36;;;;;;;;;;;;;;;29.25;19.91;96208.31;5084826;28;19920;-80
2024/02/23 02:09:02;;;;;;;;;;;;;;;28.74;20.57;96206.72;5107397;28;19940;-81
2024/02/23 02:11:28;;;;;;;;;;;;;;;28.65;20.66;96192.06;5104766;28;19923;-80
2024/02/23 02:13:54;;;;;;;;;;;;;;;28.06;21.17;96201.31;5097331;28;19920;-81
2024/02/23 02:16:20;;;;;;;;;;;;;;;28.00;21.54;96197.72;5097547;28;19977;-81
2024/02/23 02:18:46;;;;;;;;;;;;;;;28.44;21.11;96199.94;5096039;28;20439;-80
2024/02/23 02:21:12;;;;;;;;;;;;;;;28.62;20.67;96196.66;5096181;28;19916;-80
2024/02/23 02:23:38;;;;;;;;;;;;;;;28.43;21.63;96206.06;5096097;28;19942;-80
2024/02/23 02:26:04;;;;;;;;;;;;;;;28.61;20.94;96206.41;5112633;28;19916;-80
2024/02/23 02:28:30;;;;;;;;;;;;;;;28.81;20.35;96204.66;5115391;28;19966;-81
2024/02/23 02:30:57;;;;;;;;;;;;;;;28.86;20.28;96198.25;5112218;28;19953;-80
2024/02/23 02:33:23;;;;;;;;;;;;;;;29.15;20.15;96197.78;5095447;28;19916;-80
2024/02/23 02:35:52;;;;;;;;;;;;;;;29.08;20.15;96203.94;5128745;27;20019;-80
2024/02/23 02:38:18;;;;;;;;;;;;;;;29.29;19.84;96200.34;5116036;28;19916;-80
2024/02/23 02:40:44;;;;;;;;;;;;;;;29.01;20.16;96207.28;5096601;28;19923;-80
2024/02/23 02:43:10;;;;;;;;;;;;;;;28.55;20.49;96208.44;5077594;28;19923;-80
2024/02/23 02:45:36;;;;;;;;;;;;;;;28.64;20.46;96210.28;5096107;28;20027;-81
2024/02/23 02:48:02;;;;;;;;;;;;;;;28.85;20.42;96210.81;5096901;28;20432;-81
2024/02/23 02:50:29;;;;;;;;;;;;;;;28.63;20.48;96211.56;5095303;28;19917;-81
2024/02/23 02:52:55;;;;;;;;;;;;;;;28.60;20.20;96224.66;5095578;28;19923;-81
2024/02/23 02:55:21;;;;;;;;;;;;;;;28.70;20.12;96211.84;5095504;28;19916;-81
2024/02/23 02:57:47;;;;;;;;;;;;;;;28.08;20.85;96214.16;5095508;28;20057;-80
2024/02/23 03:00:13;;;;;;;;;;;;;;;28.10;20.79;96218.00;5098461;28;20326;-81
2024/02/23 03:02:39;;;;;;;;;;;;;;;28.46;20.12;96222.78;5100483;28;20382;-80
2024/02/23 03:05:05;;;;;;;;;;;;;;;28.75;20.09;96213.13;5096058;28;19919;-81
2024/02/23 03:07:31;;;;;;;;;;;;;;;28.56;20.35;96200.72;5094891;28;19924;-80
2024/02/23 03:09:57;;;;;;;;;;;;;;;28.18;20.39;96201.38;5113393;28;19942;-80
2024/02/23 03:12:23;;;;;;;;;;;;;;;28.63;20.22;96200.28;5115469;28;19919;-81
2024/02/23 03:14:49;;;;;;;;;;;;;;;28.88;19.78;96206.97;5115313;28;19927;-81
2024/02/23 03:17:15;;;;;;;;;;;;;;;28.47;20.25;96201.72;5115595;28;19916;-80
2024/02/23 03:19:41;;;;;;;;;;;;;;;28.61;20.05;96203.59;5101443;28;19918;-80
2024/02/23 03:22:07;;;;;;;;;;;;;;;28.56;20.16;96201.50;5096137;28;19965;-81
2024/02/23 03:24:33;;;;;;;;;;;;;;;29.01;19.88;96204.44;5110354;28;19912;-81
2024/02/23 03:27:00;;;;;;;;;;;;;;;28.51;20.04;96202.28;5115099;28;19965;-81
2024/02/23 03:29:29;;;;;;;;;;;;;;;28.03;20.61;96207.19;5106112;28;19939;-80
2024/02/23 03:31:55;;;;;;;;;;;;;;;28.03;20.52;96213.63;5097233;27;19916;-80
2024/02/23 03:34:21;;;;;;;;;;;;;;;28.25;20.57;96203.69;5135314;27;19923;-81
2024/02/23 03:36:47;;;;;;;;;;;;;;;28.52;20.28;96209.44;5112435;27;20373;-81
2024/02/23 03:39:13;;;;;;;;;;;;;;;28.44;20.39;96210.44;5095625;28;19916;-81
2024/02/23 03:41:39;;;;;;;;;;;;;;;28.53;20.42;96207.41;5094452;28;19926;-80
2024/02/23 03:44:06;;;;;;;;;;;;;;;28.81;20.13;96210.31;5093760;28;19916;-81
2024/02/23 03:46:32;;;;;;;;;;;;;;;28.83;19.96;96219.81;5094109;28;19965;-81
2024/02/23 03:48:58;;;;;;;;;;;;;;;29.23;19.58;96222.22;5094284;28;19916;-81
2024/02/23 03:51:24;;;;;;;;;;;;;;;29.36;19.37;96225.28;5094272;28;19916;-81
2024/02/23 03:53:50;;;;;;;;;;;;;;;28.77;20.00;96226.75;5094958;28;19920;-80
2024/02/23 03:56:16;;;;;;;;;;;;;;;28.06;20.69;96228.75;5077328;28;20002;-81
2024/02/23 03:58:42;;;;;;;;;;;;;;;28.17;20.66;96228.81;5094432;28;20330;-81
2024/02/23 04:01:08;;;;;;;;;;;;;;;28.12;20.66;96231.63;5094180;28;19916;-81
2024/02/23 04:03:34;;;;;;;;;;;;;;;28.48;20.30;96228.69;5093691;28;19920;-80
2024/02/23 04:06:00;;;;;;;;;;;;;;;29.02;19.84;96229.34;5093918;28;20386;-80
2024/02/23 04:08:26;;;;;;;;;;;;;;;28.98;19.96;96231.66;5102694;28;19916;-80
2024/02/23 04:10:52;;;;;;;;;;;;;;;28.98;19.78;96230.91;5099366;28;20253;-80
2024/02/23 04:13:18;;;;;;;;;;;;;;;29.22;19.61;96251.00;5095184;28;19955;-80
2024/02/23 04:15:44;;;;;;;;;;;;;;;29.39;19.46;96255.38;5093960;28;19927;-80
2024/02/23 04:18:11;;;;;;;;;;;;;;;29.68;19.39;96253.28;5093749;28;19963;-81
2024/02/23 04:20:37;;;;;;;;;;;;;;;29.89;19.19;96251.75;5093971;28;19920;-80
2024/02/23 04:23:03;;;;;;;;;;;;;;;29.84;19.17;96252.53;5075378;28;19924;-81
2024/02/23 04:25:29;;;;;;;;;;;;;;;29.62;19.72;96252.50;5093746;28;19920;-81
2024/02/23 04:27:55;;;;;;;;;;;;;;;29.84;19.55;96264.63;5076042;28;19916;-81
2024/02/23 04:30:21;;;;;;;;;;;;;;;29.97;19.96;96255.59;5095378;28;19923;-81
2024/02/23 04:32:47;;;;;;;;;;;;;;;30.10;19.77;96261.50;5093313;28;19939;-80
2024/02/23 04:35:14;;;;;;;;;;;;;;;30.27;19.57;96258.63;5093284;28;19920;-81
2024/02/23 04:37:43;;;;;;;;;;;;;;;30.37;19.36;96265.53;5108953;28;19981;-81
2024/02/23 04:40:09;;;;;;;;;;;;;;;30.42;19.17;96264.75;5113627;28;20063;-80
2024/02/23 04:42:35;;;;;;;;;;;;;;;30.27;19.51;96267.09;5113749;28;19949;-81
2024/02/23 04:45:02;;;;;;;;;;;;;;;29.84;20.85;96275.16;5096544;28;20024;-80
2024/02/23 04:47:28;;;;;;;;;;;;;;;29.57;21.12;96267.47;5094388;28;19986;-81
2024/02/23 04:49:54;;;;;;;;;;;;;;;29.67;20.53;96272.31;5093378;28;20281;-80
2024/02/23 04:52:20;;;;;;;;;;;;;;;29.94;20.28;96267.97;5093417;28;20392;-81
2024/02/23 04:54:46;;;;;;;;;;;;;;;30.06;20.29;96277.94;5092727;28;20012;-80
2024/02/23 04:57:12;;;;;;;;;;;;;;;30.19;19.95;96275.34;5092959;28;19916;-81
2024/02/23 04:59:38;;;;;;;;;;;;;;;30.02;20.57;96272.56;5093538;28;19916;-80
2024/02/23 05:02:04;;;;;;;;;;;;;;;29.92;20.71;96270.53;5109850;28;19916;-80
2024/02/23 05:04:30;;;;;;;;;;;;;;;29.62;20.85;96275.16;5104410;28;19930;-80
2024/02/23 05:06:56;;;;;;;;;;;;;;;29.40;21.47;96282.38;5074777;28;19987;-80
2024/02/23 05:09:22;;;;;;;;;;;;;;;29.47;21.59;96283.13;5092835;28;19920;-81
2024/02/23 05:11:48;;;;;;;;;;;;;;;29.53;21.33;96286.72;5093147;28;20442;-80
2024/02/23 05:14:15;;;;;;;;;;;;;;;29.66;21.45;96287.00;5092963;28;19962;-80
2024/02/23 05:16:41;;;;;;;;;;;;;;;29.82;21.03;96292.69;5092690;28;19923;-80
2024/02/23 05:19:07;;;;;;;;;;;;;;;29.75;20.99;96293.16;5110100;28;19916;-80
2024/02/23 05:21:33;;;;;;;;;;;;;;;29.79;20.74;96299.34;5111635;28;20276;-80
2024/02/23 05:23:59;;;;;;;;;;;;;;;29.79;21.40;96301.41;5113719;28;19923;-81
2024/02/23 05:26:25;;;;;;;;;;;;;;;29.96;20.92;96302.94;5103403;28;20011;-80
2024/02/23 05:28:52;;;;;;;;;;;;;;;30.07;20.73;96304.97;5093233;28;19916;-80
2024/02/23 05:31:18;;;;;;;;;;;;;;;29.74;20.98;96314.25;5093003;28;19916;-80
2024/02/23 05:33:44;;;;;;;;;;;;;;;29.66;21.03;96320.94;5093464;28;20354;-80
2024/02/23 05:36:10;;;;;;;;;;;;;;;29.31;21.13;96312.94;5110710;28;19931;-80
2024/02/23 05:38:36;;;;;;;;;;;;;;;29.27;21.15;96321.66;5095944;28;19923;-80
2024/02/23 05:41:02;;;;;;;;;;;;;;;28.93;21.41;96325.66;5113050;28;19916;-79
2024/02/23 05:43:28;;;;;;;;;;;;;;;28.91;21.38;96328.25;5106280;28;19970;-80
2024/02/23 05:45:57;;;;;;;;;;;;;;;29.28;21.17;96339.41;5092147;28;19920;-80
2024/02/23 05:48:23;;;;;;;;;;;;;;;29.56;21.04;96345.09;5104870;28;20384;-79
2024/02/23 05:50:49;;;;;;;;;;;;;;;29.84;20.58;96345.91;5112974;28;19962;-79
2024/02/23 05:53:15;;;;;;;;;;;;;;;29.98;20.62;96347.69;5094405;28;19920;-80
2024/02/23 05:55:41;;;;;;;;;;;;;;;29.89;20.89;96353.63;5094020;28;19923;-80
2024/02/23 05:58:07;;;;;;;;;;;;;;;29.54;21.69;96350.50;5092698;28;19916;-80
2024/02/23 06:00:34;;;;;;;;;;;;;;;29.53;21.34;96363.06;5092451;28;19923;-80
2024/02/23 06:03:00;;;;;;;;;;;;;;;29.70;21.66;96355.38;5102239;28;19924;-80
2024/02/23 06:05:26;;;;;;;;;;;;;;;29.40;21.72;96370.03;5077131;28;19920;-80
2024/02/23 06:07:52;;;;;;;;;;;;;;;29.32;21.70;96365.34;5095041;28;20270;-80
2024/02/23 06:10:18;;;;;;;;;;;;;;;29.48;21.70;96363.88;5114676;28;20376;-80
2024/02/23 06:12:44;;;;;;;;;;;;;;;29.10;22.00;96366.03;5105818;28;19979;-80
2024/02/23 06:15:10;;;;;;;;;;;;;;;28.96;22.83;96375.53;5096077;28;19958;-79
2024/02/23 06:17:38;;;;;;;;;;;;;;;29.22;22.38;96378.97;5096453;28;19920;-80
2024/02/23 06:20:05;;;;;;;;;;;;;;;29.20;22.03;96386.41;5105454;28;19916;-80
2024/02/23 06:22:32;;;;;;;;;;;;;;;29.32;22.80;96393.63;5116775;28;20028;-80
2024/02/23 06:24:58;;;;;;;;;;;;;;;29.53;22.53;96392.13;5135463;27;20060;-80
2024/02/23 06:27:25;;;;;;;;;;;;;;;29.79;22.07;96392.72;5115534;28;19963;-80
2024/02/23 06:29:51;;;;;;;;;;;;;;;29.75;21.86;96402.72;5114799;28;19923;-80
2024/02/23 06:32:17;;;;;;;;;;;;;;;29.89;21.64;96402.50;5115865;28;19916;-80
2024/02/23 06:34:43;;;;;;;;;;;;;;;29.66;22.38;96411.47;5096174;28;20025;-80
2024/02/23 06:37:09;;;;;;;;;;;;;;;29.66;22.52;96412.25;5105360;28;19924;-80
2024/02/23 06:39:35;;;;;;;;;;;;;;;29.46;22.79;96408.84;5134987;27;20085;-80
2024/02/23 06:42:04;;;;;;;;;;;;;;;29.24;22.90;96413.13;5124702;27;19916;-80
2024/02/23 06:44:30;;;;;;;;;;;;;;;29.09;23.67;96406.13;5095635;28;19974;-80
2024/02/23 06:46:56;;;;;;;;;;;;;;;28.67;23.82;96418.25;5096558;28;20361;-80
2024/02/23 06:49:22;;;;;;;;;;;;;;;29.10;23.62;96416.91;5095516;28;19959;-80
2024/02/23 06:51:48;;;;;;;;;;;;;;;29.60;23.47;96419.16;5095557;28;19916;-80
2024/02/23 06:54:14;;;;;;;;;;;;;;;29.75;23.34;96422.53;5095673;28;19970;-80
2024/02/23 06:56:40;;;;;;;;;;;;;;;29.86;23.17;96436.72;5095740;28;19935;-80
2024/02/23 06:59:06;;;;;;;;;;;;;;;29.67;23.08;96432.78;5095862;28;20356;-80
2024/02/23 07:01:35;;;;;;;;;;;;;;;29.72;23.14;96437.69;5095276;28;20426;-80
2024/02/23 07:04:01;;;;;;;;;;;;;;;29.87;22.78;96432.59;5105973;28;19919;-80
2024/02/23 07:06:28;;;;;;;;;;;;;;;30.00;22.92;96444.97;5115689;28;19919;-80
2024/02/23 07:08:54;;;;;;;;;;;;;;;29.93;22.82;96436.22;5110375;28;20016;-80
2024/02/23 07:11:20;;;;;;;;;;;;;;;30.03;23.33;96446.78;5115113;28;19979;-80
2024/02/23 07:13:46;;;;;;;;;;;;;;;30.08;23.38;96448.81;5115440;28;19939;-80
2024/02/23 07:16:12;;;;;;;;;;;;;;;29.94;23.30;96438.50;5112706;28;20288;-80
2024/02/23 07:18:40;;;;;;;;;;;;;;;29.56;23.94;96446.91;5075716;28;20382;-80
2024/02/23 07:21:06;;;;;;;;;;;;;;;29.05;24.60;96462.13;5096056;28;19920;-80
2024/02/23 07:23:32;;;;;;;;;;;;;;;29.13;24.26;96461.13;5094907;28;19916;-80
2024/02/23 07:25:58;;;;;;;;;;;;;;;29.31;24.50;96466.38;5094602;28;20341;-80
2024/02/23 07:28:24;;;;;;;;;;;;;;;29.46;24.17;96468.22;5095047;28;19916;-80
2024/02/23 07:30:51;;;;;;;;;;;;;;;29.94;23.43;96466.81;5094618;28;19974;-80
2024/02/23 07:33:17;;;;;;;;;;;;;;;30.25;22.91;96468.63;5095113;28;19923;-80
2024/02/23 07:35:43;;;;;;;;;;;;;;;30.48;22.36;96475.88;5111945;28;20014;-80
2024/02/23 07:38:09;;;;;;;;;;;;;;;30.54;22.68;96478.72;5097926;28;19971;-80
2024/02/23 07:40:35;;;;;;;;;;;;;;;30.27;23.01;96485.13;5094410;28;19959;-80
2024/02/23 07:43:01;;;;;;;;;;;;;;;30.09;23.48;96484.34;5094387;28;19916;-80
2024/02/23 07:45:27;;;;;;;;;;;;;;;29.90;23.21;96482.50;5087508;28;19982;-80
2024/02/23 07:47:53;;;;;;;;;;;;;;;29.86;23.50;96498.97;5074290;28;19923;-80
2024/02/23 07:50:19;;;;;;;;;;;;;;;29.94;23.54;96495.13;5074471;28;19928;-80
2024/02/23 07:52:46;;;;;;;;;;;;;;;30.18;23.34;96503.13;5074024;28;20366;-80
2024/02/23 07:55:12;;;;;;;;;;;;;;;30.39;23.05;96504.47;5074857;28;19919;-80
2024/02/23 07:57:39;;;;;;;;;;;;;;;30.51;22.71;96508.84;5074073;28;20282;-80
2024/02/23 08:00:07;;;;;;;;;;;;;;;30.51;22.73;96516.56;5074148;28;19913;-80
2024/02/23 08:02:33;;;;;;;;;;;;;;;30.07;23.72;96520.09;5073714;28;19924;-80
2024/02/23 08:04:59;;;;;;;;;;;;;;;29.75;23.97;96524.38;5074222;28;19928;-81
2024/02/23 08:07:25;;;;;;;;;;;;;;;29.26;24.45;96535.00;5073795;28;19927;-80
2024/02/23 08:09:51;;;;;;;;;;;;;;;29.08;25.17;96532.53;5089014;28;20277;-80
2024/02/23 08:12:17;;;;;;;;;;;;;;;29.24;24.90;96529.03;5082506;28;19971;-81
2024/02/23 08:14:45;;;;;;;;;;;;;;;29.62;23.95;96539.00;5073339;28;19963;-80
2024/02/23 08:17:11;;;;;;;;;;;;;;;29.65;23.43;96542.84;5055465;28;19927;-81
2024/02/23 08:19:37;;;;;;;;;;;;;;;29.81;23.52;96547.81;5073832;28;19916;-81
2024/02/23 08:22:03;;;;;;;;;;;;;;;30.07;23.38;96549.19;5073502;28;20369;-81
2024/02/23 08:24:29;;;;;;;;;;;;;;;30.25;23.26;96542.25;5073713;28;19917;-80
2024/02/23 08:26:55;;;;;;;;;;;;;;;30.35;23.08;96543.59;5073366;28;20342;-81
2024/02/23 08:29:21;;;;;;;;;;;;;;;30.23;23.37;96544.84;5074778;28;20294;-80
2024/02/23 08:31:48;;;;;;;;;;;;;;;30.27;23.52;96541.78;5093789;28;19912;-80
2024/02/23 08:34:14;;;;;;;;;;;;;;;30.25;23.56;96552.81;5093641;28;20019;-81
2024/02/23 08:36:40;;;;;;;;;;;;;;;30.31;23.50;96551.56;5079201;28;19920;-80
2024/02/23 08:39:07;;;;;;;;;;;;;;;30.17;23.70;96549.72;5073012;28;19924;-80
2024/02/23 08:41:33;;;;;;;;;;;;;;;30.07;23.66;96546.38;5077356;28;20022;-80
2024/02/23 08:43:59;;;;;;;;;;;;;;;29.75;24.35;96555.50;5093088;28;20026;-80
2024/02/23 08:46:25;;;;;;;;;;;;;;;29.90;23.93;96556.09;5091687;28;20049;-80
2024/02/23 08:48:51;;;;;;;;;;;;;;;30.00;23.70;96558.19;5093196;28;20453;-80
2024/02/23 08:51:18;;;;;;;;;;;;;;;30.04;23.94;96552.25;5093333;28;20396;-80
2024/02/23 08:53:44;;;;;;;;;;;;;;;30.18;23.48;96548.44;5092947;28;19958;-80
2024/02/23 08:56:11;;;;;;;;;;;;;;;30.26;23.60;96555.16;5093236;28;19955;-80
2024/02/23 08:58:37;;;;;;;;;;;;;;;30.39;23.80;96552.59;5097732;28;20285;-81
2024/02/23 09:01:04;;;;;;;;;;;;;;;30.51;23.19;96559.06;5113799;28;20361;-81
2024/02/23 09:03:31;;;;;;;;;;;;;;;30.56;23.34;96561.91;5096269;28;19927;-81
2024/02/23 09:05:57;;;;;;;;;;;;;;;30.62;23.37;96565.50;5093541;28;19920;-81
2024/02/23 09:08:23;;;;;;;;;;;;;;;30.53;23.00;96560.09;5093742;28;19926;-80
2024/02/23 09:10:49;;;;;;;;;;;;;;;30.53;23.23;96571.41;5110943;28;19963;-81
2024/02/23 09:13:15;;;;;;;;;;;;;;;30.60;23.29;96579.41;5113398;28;19978;-81
2024/02/23 09:15:42;;;;;;;;;;;;;;;30.61;23.10;96583.03;5107659;28;20014;-81
2024/02/23 09:18:08;;;;;;;;;;;;;;;30.64;22.76;96588.41;5093201;28;19923;-81
2024/02/23 09:20:34;;;;;;;;;;;;;;;30.70;23.18;96594.88;5094195;28;20396;-81
2024/02/23 09:23:00;;;;;;;;;;;;;;;30.75;23.04;96574.28;5092788;28;19927;-81
2024/02/23 09:25:27;;;;;;;;;;;;;;;30.84;22.89;96575.28;5092744;28;20001;-80
2024/02/23 09:27:56;;;;;;;;;;;;;;;30.87;23.33;96583.53;5074752;28;20385;-81
2024/02/23 09:30:22;;;;;;;;;;;;;;;30.77;23.12;96582.25;5092972;28;19924;-81
2024/02/23 09:32:48;;;;;;;;;;;;;;;30.71;23.27;96590.72;5108669;28;19912;-81
2024/02/23 09:35:14;;;;;;;;;;;;;;;30.86;23.27;96584.81;5113135;28;20276;-81
2024/02/23 09:37:41;;;;;;;;;;;;;;;31.00;23.47;96597.97;5076324;28;19955;-81
2024/02/23 09:40:07;;;;;;;;;;;;;;;30.75;23.11;96602.59;5092840;28;19924;-81
2024/02/23 09:42:34;;;;;;;;;;;;;;;30.52;23.60;96609.53;5095131;28;19962;-80
2024/02/23 09:45:00;;;;;;;;;;;;;;;29.97;24.07;96617.84;5096618;28;19926;-81
2024/02/23 09:47:28;;;;;;;;;;;;;;;29.99;24.13;96624.56;5096531;28;19928;-81
2024/02/23 09:49:54;;;;;;;;;;;;;;;30.16;23.86;96633.09;5103727;28;19920;-81
2024/02/23 09:52:21;;;;;;;;;;;;;;;30.43;23.90;96638.13;5116962;28;19920;-81
2024/02/23 09:54:47;;;;;;;;;;;;;;;30.60;23.37;96638.91;5097670;28;19923;-81
2024/02/23 09:57:14;;;;;;;;;;;;;;;30.68;23.21;96648.47;5078316;28;19916;-81
2024/02/23 09:59:40;;;;;;;;;;;;;;;30.65;23.35;96643.81;5096614;28;19927;-81
2024/02/23 10:02:08;;;;;;;;;;;;;;;30.48;23.42;96645.09;5078236;28;19916;-80
2024/02/23 10:04:34;;;;;;;;;;;;;;;30.47;23.54;96643.53;5097258;28;19920;-80
2024/02/23 10:07:00;;;;;;;;;;;;;;;30.43;23.88;96640.94;5114827;28;19923;-80
2024/02/23 10:09:26;;;;;;;;;;;;;;;30.51;23.72;96638.38;5099278;28;19970;-80
2024/02/23 10:11:53;;;;;;;;;;;;;;;30.54;23.86;96638.13;5097352;28;20038;-81
2024/02/23 10:14:19;;;;;;;;;;;;;;;30.49;23.47;96647.38;5101793;28;19912;-81
2024/02/23 10:16:45;;;;;;;;;;;;;;;30.63;23.73;96634.28;5087687;28;20295;-81
2024/02/23 10:19:11;;;;;;;;;;;;;;;30.67;23.32;96638.41;5096103;28;19952;-80
2024/02/23 10:21:37;;;;;;;;;;;;;;;30.73;23.76;96635.56;5095837;28;19923;-81
2024/02/23 10:24:04;;;;;;;;;;;;;;;30.73;23.75;96638.41;5096665;28;20439;-81
2024/02/23 10:26:31;;;;;;;;;;;;;;;30.53;23.33;96630.91;5096778;28;19966;-81
2024/02/23 10:28:58;;;;;;;;;;;;;;;30.55;23.43;96642.50;5096336;28;20014;-81
2024/02/23 10:31:24;;;;;;;;;;;;;;;30.83;23.35;96651.03;5096277;28;19916;-81
2024/02/23 10:33:52;;;;;;;;;;;;;;;30.98;22.64;96650.81;5096467;28;19931;-81
2024/02/23 10:36:19;;;;;;;;;;;;;;;31.04;22.84;96643.09;5098762;28;19920;-81
2024/02/23 10:38:46;;;;;;;;;;;;;;;30.99;23.01;96644.66;5095726;28;19912;-81
2024/02/23 10:41:13;;;;;;;;;;;;;;;30.82;22.98;96640.22;5105316;28;20385;-81
2024/02/23 10:43:42;;;;;;;;;;;;;;;30.86;22.80;96643.56;5115348;28;19920;-81
2024/02/23 10:46:12;;;;;;;;;;;;;;;30.92;22.95;96641.53;5096926;28;19951;-81
2024/02/23 10:48:43;;;;;;;;;;;;;;;31.09;23.47;96636.63;5116071;28;19923;-81
2024/02/23 10:51:10;;;;;;;;;;;;;;;31.15;22.14;96631.75;5115715;28;20015;-81
2024/02/23 10:53:36;;;;;;;;;;;;;;;31.05;22.75;96645.41;5115782;28;19962;-81
2024/02/23 10:56:03;;;;;;;;;;;;;;;31.16;23.07;96651.06;5115922;28;20006;-81
2024/02/23 10:58:29;;;;;;;;;;;;;;;31.32;22.71;96647.44;5115301;28;19916;-81
2024/02/23 11:01:00;;;;;;;;;;;;;;;31.06;22.29;96640.50;5112048;28;19916;-81
2024/02/23 11:03:28;;;;;;;;;;;;;;;31.22;22.41;96631.22;5095298;28;19924;-81
2024/02/23 11:05:54;;;;;;;;;;;;;;;31.21;22.17;96636.13;5107188;28;19927;-81
2024/02/23 11:08:20;;;;;;;;;;;;;;;31.21;21.78;96649.50;5095903;28;19920;-81
2024/02/23 11:10:52;;;;;;;;;;;;;;;30.87;22.94;96660.06;5108475;28;20365;-81
2024/02/23 11:13:18;;;;;;;;;;;;;;;30.44;23.22;96659.47;5107324;28;20320;-81
2024/02/23 11:15:44;;;;;;;;;;;;;;;30.21;22.83;96659.88;5095707;28;19963;-81
2024/02/23 11:18:23;;;;;;;;;;;;;;;29.90;22.94;96661.56;5096152;28;19953;-81
2024/02/23 11:20:59;;;;;;;;;;;;;;;30.06;23.61;96660.09;5094774;28;19916;-81
2024/02/23 11:23:25;;;;;;;;;;;;;;;30.53;23.02;96667.72;5094813;28;19916;-81
2024/02/23 11:26:00;;;;;;;;;;;;;;;30.75;23.00;96661.34;5094722;28;20301;-81
2024/02/23 11:28:26;;;;;;;;;;;;;;;31.03;22.72;96661.38;5095006;28;19916;-81
2024/02/23 11:30:53;;;;;;;;;;;;;;;31.18;21.21;96662.66;5076559;28;20370;-81
2024/02/23 11:33:26;;;;;;;;;;;;;;;31.03;22.85;96658.53;5095443;28;19970;-81
2024/02/23 11:35:52;;;;;;;;;;;;;;;31.10;22.14;96666.53;5095726;28;19920;-81
2024/02/23 11:38:21;;;;;;;;;;;;;;;31.32;21.46;96666.53;5095823;28;19920;-81
2024/02/23 11:40:47;;;;;;;;;;;;;;;31.21;22.08;96658.78;5076352;28;20298;-81
2024/02/23 11:43:14;;;;;;;;;;;;;;;31.03;21.61;96664.22;5094718;28;19924;-81
2024/02/23 11:45:40;;;;;;;;;;;;;;;30.36;22.46;96669.78;5094417;28;19920;-81
2024/02/23 11:48:07;;;;;;;;;;;;;;;30.17;23.21;96670.69;5095049;28;19916;-81
2024/02/23 11:50:33;;;;;;;;;;;;;;;30.65;22.28;96660.81;5108231;27;19919;-81
2024/02/23 11:52:59;;;;;;;;;;;;;;;30.49;22.69;96661.56;5108725;27;19916;-81
2024/02/23 11:55:25;;;;;;;;;;;;;;;30.86;22.63;96669.84;5094232;28;19916;-81
2024/02/23 11:57:52;;;;;;;;;;;;;;;30.87;22.45;96676.28;5094378;28;19923;-81
2024/02/23 12:00:18;;;;;;;;;;;;;;;31.04;21.68;96668.63;5094159;28;20374;-81
2024/02/23 12:02:48;;;;;;;;;;;;;;;31.27;22.54;96678.66;5093869;28;19916;-81
2024/02/23 12:05:14;;;;;;;;;;;;;;;31.44;22.04;96690.03;5097633;28;19919;-81
2024/02/23 12:07:40;;;;;;;;;;;;;;;31.09;22.29;96688.44;5094042;28;19924;-81
2024/02/23 12:10:07;;;;;;;;;;;;;;;30.08;22.99;96685.84;5103840;28;19949;-81
2024/02/23 12:12:33;;;;;;;;;;;;;;;30.19;23.44;96685.91;5106059;28;19962;-81
2024/02/23 12:15:00;;;;;;;;;;;;;;;28.98;23.67;96685.84;5100664;28;19916;-81
2024/02/23 12:17:29;;;;;;;;;;;;;;;29.55;23.44;96688.59;5093721;28;19912;-81
2024/02/23 12:20:00;;;;;;;;;;;;;;;30.20;23.01;96695.16;5093968;28;20274;-81
2024/02/23 12:22:27;;;;;;;;;;;;;;;30.10;22.49;96694.63;5096964;28;20006;-81
2024/02/23 12:24:53;;;;;;;;;;;;;;;30.38;22.84;96700.41;5095793;28;19915;-80
2024/02/23 12:27:21;;;;;;;;;;;;;;;30.07;23.12;96712.59;5112444;28;19916;-81
2024/02/23 12:29:54;;;;;;;;;;;;;;;30.01;22.88;96704.06;5113474;28;20369;-80
2024/02/23 12:32:23;;;;;;;;;;;;;;;30.17;23.17;96702.63;5093512;28;19920;-81
2024/02/23 12:34:49;;;;;;;;;;;;;;;30.51;22.77;96712.81;5093283;28;19963;-81
2024/02/23 12:37:16;;;;;;;;;;;;;;;30.95;22.64;96712.16;5093450;28;19927;-81
2024/02/23 12:39:43;;;;;;;;;;;;;;;31.33;22.92;96704.94;5080754;28;20023;-81
2024/02/23 12:42:09;;;;;;;;;;;;;;;31.49;22.13;96707.03;5113911;28;20436;-81
2024/02/23 12:44:35;;;;;;;;;;;;;;;31.57;22.04;96712.94;5112269;28;19916;-81